Terminal Aerodrome Forecast
Issued by NWS Boston, MA

Home | Current Version | Previous Version | Text Only | Print | Product List | Glossary On
Versions: 1 2 3 4 5 6 7 8 9 10 11 12 13 14 15 16 17 18 19
000
FTUS41 KBOX 311729
TAFORH
TAF
KORH 311729Z 3118/0118 08006KT P6SM OVC050
     FM010400 04008KT P6SM OVC030
     FM011200 02013KT P6SM -SHRA OVC025
     FM011500 03014G22KT P6SM -SHRA OVC015=

USA.gov is the U.S. government's official web portal to all federal, state and local government web resources and services.